Annapolis, IN

4:42 AM EST on February 01, 2015 (GMT -0500)
KINROCKV2 | Change Station
CLOSE
Current Station
Personal Weather Station
Location: Rockville, IN
Elevation: 702 ft
Nearby Weather Stations

Elev 702 ft 39.77 °N, 87.22 °W | Updated 4 seconds ago

Rain
Rain
33.1 °F
Feels Like 33 °F
N
1.0
Wind Variable Wind from ENE
Gusts 7.0 mph

Today
High -- | Low -- °F
--% Chance of Precip.
Yesterday
High -- | Low -- °F
Precip. -- in
7:57 AM 6:08 PM
Waxing Gibbous, 94% visible
Pressure 30.01 in
Visibility 10.0 miles
Clouds Scattered Clouds 4400 ft
Mostly Cloudy 6500 ft
Overcast 8000 ft
Windchill 33 °F
Dew Point 32 °F
Humidity 96%
Rainfall 0.02 in
Snow Depth Not available.
UV 0 out of 12
Pollen .10 out of 12
Air Quality Not available.
Flu Activity Not available.
METAR KPRG 010915Z AUTO 10006KT 10SM SCT044 BKN065 OVC080 01/M01 A3001 RMK AO2 T00101006

More Conditions Fewer Conditions

Pressure 30.01 in
Visibility 10.0 miles
Clouds Scattered Clouds 4400 ft
Mostly Cloudy 6500 ft
Overcast 8000 ft
Windchill 33 °F
Dew Point 32 °F
Humidity 96%
Rainfall 0.02 in
Snow Depth Not available.
UV 0 out of 12
Pollen .10 out of 12
Air Quality Not available.
Flu Activity Not available.
METAR KPRG 010915Z AUTO 10006KT 10SM SCT044 BKN065 OVC080 01/M01 A3001 RMK AO2 T00101006

More Conditions Fewer Conditions

10-Day Weather Forecast

Almanac

Astronomy

Feb. 01, 2015 Rise Set
Actual Time
Civil Twilight
Nautical Twilight
Astronomical Twilight
Moon
Length of Visible Light
Length of Day
Tomorrow will be .
, % of the Moon is Illuminated

Today's Extremes

State Highs State Lows

Community

WunderPhotos

Upload Photos

1,792,354 photos uploaded!

WunderBlogs® & News

Nearby

Air Quality

  Air Quality AQ Index Pollutant
Not available.

Snow Depth

Station Depth Elevation

Earthquake Activity

City Distance Mag. Time & Date
Minimum magnitude displayed is 2.5.

Coastal Water Temperatures

Place Temperature

Nearby Weather Stations